sensor_id;sensor_type;location;lat;lon;timestamp;P1;durP1;ratioP1;P2;durP2;ratioP2
8490;SDS011;4282;49.986;7.938;2023-05-07T00:01:38;2.70;;;1.55;;
8490;SDS011;4282;49.986;7.938;2023-05-07T00:04:06;3.40;;;1.20;;
8490;SDS011;4282;49.986;7.938;2023-05-07T00:06:34;3.25;;;1.52;;
8490;SDS011;4282;49.986;7.938;2023-05-07T00:09:03;1.70;;;1.60;;
8490;SDS011;4282;49.986;7.938;2023-05-07T00:11:31;2.25;;;1.65;;
8490;SDS011;4282;49.986;7.938;2023-05-07T00:14:00;1.63;;;1.52;;
8490;SDS011;4282;49.986;7.938;2023-05-07T00:16:28;1.50;;;1.30;;
8490;SDS011;4282;49.986;7.938;2023-05-07T00:18:59;2.33;;;2.00;;
8490;SDS011;4282;49.986;7.938;2023-05-07T00:21:27;1.90;;;1.45;;
8490;SDS011;4282;49.986;7.938;2023-05-07T00:23:55;1.90;;;1.50;;
8490;SDS011;4282;49.986;7.938;2023-05-07T00:26:24;2.67;;;1.60;;
8490;SDS011;4282;49.986;7.938;2023-05-07T00:28:52;1.90;;;1.70;;
8490;SDS011;4282;49.986;7.938;2023-05-07T00:31:20;2.30;;;1.70;;
8490;SDS011;4282;49.986;7.938;2023-05-07T00:33:48;2.47;;;1.70;;
8490;SDS011;4282;49.986;7.938;2023-05-07T00:36:19;2.08;;;1.60;;
8490;SDS011;4282;49.986;7.938;2023-05-07T00:38:47;1.55;;;1.45;;
8490;SDS011;4282;49.986;7.938;2023-05-07T00:41:16;4.00;;;1.85;;
8490;SDS011;4282;49.986;7.938;2023-05-07T00:43:44;1.77;;;1.20;;
8490;SDS011;4282;49.986;7.938;2023-05-07T00:46:12;1.60;;;1.42;;
8490;SDS011;4282;49.986;7.938;2023-05-07T00:48:41;4.38;;;1.40;;
8490;SDS011;4282;49.986;7.938;2023-05-07T00:51:09;1.80;;;1.50;;
8490;SDS011;4282;49.986;7.938;2023-05-07T00:53:41;1.67;;;1.35;;
8490;SDS011;4282;49.986;7.938;2023-05-07T00:56:09;2.47;;;1.40;;
8490;SDS011;4282;49.986;7.938;2023-05-07T00:58:38;1.40;;;1.30;;
8490;SDS011;4282;49.986;7.938;2023-05-07T01:01:06;1.20;;;1.10;;
8490;SDS011;4282;49.986;7.938;2023-05-07T01:03:34;1.45;;;1.35;;
8490;SDS011;4282;49.986;7.938;2023-05-07T01:06:03;1.58;;;1.42;;
8490;SDS011;4282;49.986;7.938;2023-05-07T01:08:32;1.92;;;1.30;;
8490;SDS011;4282;49.986;7.938;2023-05-07T01:11:03;1.80;;;1.42;;
8490;SDS011;4282;49.986;7.938;2023-05-07T01:13:31;2.38;;;2.17;;
8490;SDS011;4282;49.986;7.938;2023-05-07T01:15:59;3.83;;;2.30;;
8490;SDS011;4282;49.986;7.938;2023-05-07T01:18:28;3.88;;;2.83;;
8490;SDS011;4282;49.986;7.938;2023-05-07T01:20:56;2.13;;;1.85;;
8490;SDS011;4282;49.986;7.938;2023-05-07T01:23:29;2.72;;;2.17;;
8490;SDS011;4282;49.986;7.938;2023-05-07T01:25:58;3.08;;;2.00;;
8490;SDS011;4282;49.986;7.938;2023-05-07T01:28:26;1.50;;;1.40;;
8490;SDS011;4282;49.986;7.938;2023-05-07T01:30:55;2.53;;;1.88;;
8490;SDS011;4282;49.986;7.938;2023-05-07T01:33:27;1.30;;;1.20;;
8490;SDS011;4282;49.986;7.938;2023-05-07T01:35:58;2.05;;;1.45;;
8490;SDS011;4282;49.986;7.938;2023-05-07T01:38:31;1.55;;;1.45;;
8490;SDS011;4282;49.986;7.938;2023-05-07T01:41:00;1.95;;;1.52;;
8490;SDS011;4282;49.986;7.938;2023-05-07T01:43:29;2.80;;;1.55;;
8490;SDS011;4282;49.986;7.938;2023-05-07T01:45:58;3.85;;;3.10;;
8490;SDS011;4282;49.986;7.938;2023-05-07T01:48:26;4.97;;;2.13;;
8490;SDS011;4282;49.986;7.938;2023-05-07T01:50:55;1.73;;;1.63;;
8490;SDS011;4282;49.986;7.938;2023-05-07T01:53:25;2.13;;;1.90;;
8490;SDS011;4282;49.986;7.938;2023-05-07T01:55:57;2.23;;;1.70;;
8490;SDS011;4282;49.986;7.938;2023-05-07T01:58:25;2.30;;;1.80;;
8490;SDS011;4282;49.986;7.938;2023-05-07T02:00:53;1.97;;;1.57;;
8490;SDS011;4282;49.986;7.938;2023-05-07T02:03:22;1.63;;;1.50;;
8490;SDS011;4282;49.986;7.938;2023-05-07T02:05:50;2.13;;;1.90;;
8490;SDS011;4282;49.986;7.938;2023-05-07T02:08:19;2.07;;;1.77;;
8490;SDS011;4282;49.986;7.938;2023-05-07T02:10:47;3.00;;;2.08;;
8490;SDS011;4282;49.986;7.938;2023-05-07T02:13:19;4.13;;;2.13;;
8490;SDS011;4282;49.986;7.938;2023-05-07T02:15:49;3.07;;;1.67;;
8490;SDS011;4282;49.986;7.938;2023-05-07T02:18:18;4.17;;;1.93;;
8490;SDS011;4282;49.986;7.938;2023-05-07T02:20:46;2.83;;;2.22;;
8490;SDS011;4282;49.986;7.938;2023-05-07T02:23:15;3.28;;;2.08;;
8490;SDS011;4282;49.986;7.938;2023-05-07T02:25:43;4.60;;;1.98;;
8490;SDS011;4282;49.986;7.938;2023-05-07T02:28:11;4.47;;;1.73;;
8490;SDS011;4282;49.986;7.938;2023-05-07T02:30:42;5.57;;;1.75;;
8490;SDS011;4282;49.986;7.938;2023-05-07T02:33:11;2.80;;;2.00;;
8490;SDS011;4282;49.986;7.938;2023-05-07T02:35:40;1.85;;;1.63;;
8490;SDS011;4282;49.986;7.938;2023-05-07T02:38:08;3.00;;;1.95;;
8490;SDS011;4282;49.986;7.938;2023-05-07T02:40:37;3.30;;;1.85;;
8490;SDS011;4282;49.986;7.938;2023-05-07T02:43:06;2.28;;;1.85;;
8490;SDS011;4282;49.986;7.938;2023-05-07T02:45:34;2.13;;;1.92;;
8490;SDS011;4282;49.986;7.938;2023-05-07T02:48:06;2.17;;;1.80;;
8490;SDS011;4282;49.986;7.938;2023-05-07T02:50:34;2.67;;;1.73;;
8490;SDS011;4282;49.986;7.938;2023-05-07T02:53:03;2.17;;;1.70;;
8490;SDS011;4282;49.986;7.938;2023-05-07T02:55:31;1.88;;;1.70;;
8490;SDS011;4282;49.986;7.938;2023-05-07T02:57:59;3.33;;;1.77;;
8490;SDS011;4282;49.986;7.938;2023-05-07T03:00:28;2.47;;;2.17;;
8490;SDS011;4282;49.986;7.938;2023-05-07T03:02:56;1.58;;;1.48;;
8490;SDS011;4282;49.986;7.938;2023-05-07T03:05:27;2.72;;;1.70;;
8490;SDS011;4282;49.986;7.938;2023-05-07T03:07:55;1.80;;;1.70;;
8490;SDS011;4282;49.986;7.938;2023-05-07T03:10:23;2.20;;;1.58;;
8490;SDS011;4282;49.986;7.938;2023-05-07T03:12:51;1.77;;;1.50;;
8490;SDS011;4282;49.986;7.938;2023-05-07T03:15:20;1.83;;;1.65;;
8490;SDS011;4282;49.986;7.938;2023-05-07T03:17:48;1.75;;;1.58;;
8490;SDS011;4282;49.986;7.938;2023-05-07T03:20:17;3.08;;;1.70;;
8490;SDS011;4282;49.986;7.938;2023-05-07T03:22:47;3.25;;;1.80;;
8490;SDS011;4282;49.986;7.938;2023-05-07T03:25:16;1.75;;;1.65;;
8490;SDS011;4282;49.986;7.938;2023-05-07T03:27:44;2.95;;;1.60;;
8490;SDS011;4282;49.986;7.938;2023-05-07T03:30:12;1.70;;;1.60;;
8490;SDS011;4282;49.986;7.938;2023-05-07T03:32:40;3.08;;;1.60;;
8490;SDS011;4282;49.986;7.938;2023-05-07T03:35:09;2.20;;;2.00;;
8490;SDS011;4282;49.986;7.938;2023-05-07T03:37:37;2.38;;;1.30;;
8490;SDS011;4282;49.986;7.938;2023-05-07T03:40:09;3.80;;;1.80;;
8490;SDS011;4282;49.986;7.938;2023-05-07T03:42:38;1.77;;;1.67;;
8490;SDS011;4282;49.986;7.938;2023-05-07T03:45:07;2.90;;;1.90;;
8490;SDS011;4282;49.986;7.938;2023-05-07T03:47:36;2.00;;;1.80;;
8490;SDS011;4282;49.986;7.938;2023-05-07T03:50:04;4.22;;;2.08;;
8490;SDS011;4282;49.986;7.938;2023-05-07T03:52:33;2.30;;;1.60;;
8490;SDS011;4282;49.986;7.938;2023-05-07T03:55:01;2.05;;;1.85;;
8490;SDS011;4282;49.986;7.938;2023-05-07T03:57:33;2.23;;;2.03;;
8490;SDS011;4282;49.986;7.938;2023-05-07T04:00:01;2.00;;;1.80;;
8490;SDS011;4282;49.986;7.938;2023-05-07T04:02:32;2.00;;;1.70;;
8490;SDS011;4282;49.986;7.938;2023-05-07T04:05:00;2.53;;;1.70;;
8490;SDS011;4282;49.986;7.938;2023-05-07T04:07:29;4.27;;;1.70;;
8490;SDS011;4282;49.986;7.938;2023-05-07T04:09:57;2.10;;;1.60;;
8490;SDS011;4282;49.986;7.938;2023-05-07T04:12:25;3.00;;;1.90;;
8490;SDS011;4282;49.986;7.938;2023-05-07T04:14:56;3.30;;;2.00;;
8490;SDS011;4282;49.986;7.938;2023-05-07T04:17:24;2.63;;;1.83;;
8490;SDS011;4282;49.986;7.938;2023-05-07T04:19:52;1.93;;;1.50;;
8490;SDS011;4282;49.986;7.938;2023-05-07T04:22:21;2.92;;;2.10;;
8490;SDS011;4282;49.986;7.938;2023-05-07T04:24:49;3.08;;;1.83;;
8490;SDS011;4282;49.986;7.938;2023-05-07T04:27:17;3.53;;;2.40;;
8490;SDS011;4282;49.986;7.938;2023-05-07T04:32:59;3.25;;;1.67;;
8490;SDS011;4282;49.986;7.938;2023-05-07T04:35:28;2.10;;;1.60;;
8490;SDS011;4282;49.986;7.938;2023-05-07T04:37:56;1.73;;;1.63;;
8490;SDS011;4282;49.986;7.938;2023-05-07T04:40:24;2.72;;;1.90;;
8490;SDS011;4282;49.986;7.938;2023-05-07T04:42:52;3.30;;;1.60;;
8490;SDS011;4282;49.986;7.938;2023-05-07T04:45:21;3.83;;;1.80;;
8490;SDS011;4282;49.986;7.938;2023-05-07T04:47:49;2.35;;;1.70;;
8490;SDS011;4282;49.986;7.938;2023-05-07T04:50:20;2.05;;;1.85;;
8490;SDS011;4282;49.986;7.938;2023-05-07T04:52:49;3.93;;;1.90;;
8490;SDS011;4282;49.986;7.938;2023-05-07T04:55:17;2.42;;;1.90;;
8490;SDS011;4282;49.986;7.938;2023-05-07T04:57:46;2.37;;;1.70;;
8490;SDS011;4282;49.986;7.938;2023-05-07T05:00:14;3.58;;;1.90;;
8490;SDS011;4282;49.986;7.938;2023-05-07T05:02:44;3.37;;;1.97;;
8490;SDS011;4282;49.986;7.938;2023-05-07T05:05:12;2.05;;;1.58;;
8490;SDS011;4282;49.986;7.938;2023-05-07T05:07:43;2.60;;;2.10;;
8490;SDS011;4282;49.986;7.938;2023-05-07T05:10:11;2.10;;;1.70;;
8490;SDS011;4282;49.986;7.938;2023-05-07T05:12:41;2.80;;;1.60;;
8490;SDS011;4282;49.986;7.938;2023-05-07T05:15:10;1.63;;;1.50;;
8490;SDS011;4282;49.986;7.938;2023-05-07T05:17:38;1.87;;;1.77;;
8490;SDS011;4282;49.986;7.938;2023-05-07T05:20:07;2.30;;;1.80;;
8490;SDS011;4282;49.986;7.938;2023-05-07T05:22:37;2.00;;;1.70;;
8490;SDS011;4282;49.986;7.938;2023-05-07T05:25:08;3.33;;;1.48;;
8490;SDS011;4282;49.986;7.938;2023-05-07T05:27:36;2.93;;;1.83;;
8490;SDS011;4282;49.986;7.938;2023-05-07T05:30:05;5.03;;;2.10;;
8490;SDS011;4282;49.986;7.938;2023-05-07T05:32:34;2.00;;;1.80;;
8490;SDS011;4282;49.986;7.938;2023-05-07T05:35:03;3.23;;;2.10;;
8490;SDS011;4282;49.986;7.938;2023-05-07T05:37:32;2.17;;;1.87;;
8490;SDS011;4282;49.986;7.938;2023-05-07T05:40:00;2.83;;;1.87;;
8490;SDS011;4282;49.986;7.938;2023-05-07T05:42:31;2.22;;;2.03;;
8490;SDS011;4282;49.986;7.938;2023-05-07T05:45:00;2.40;;;2.13;;
8490;SDS011;4282;49.986;7.938;2023-05-07T05:47:28;3.08;;;1.80;;
8490;SDS011;4282;49.986;7.938;2023-05-07T05:49:57;4.22;;;2.60;;
8490;SDS011;4282;49.986;7.938;2023-05-07T05:52:25;2.10;;;1.80;;
8490;SDS011;4282;49.986;7.938;2023-05-07T05:54:53;3.97;;;1.95;;
8490;SDS011;4282;49.986;7.938;2023-05-07T05:57:21;2.35;;;1.90;;
8490;SDS011;4282;49.986;7.938;2023-05-07T05:59:52;2.20;;;1.77;;
8490;SDS011;4282;49.986;7.938;2023-05-07T06:02:21;5.97;;;2.22;;
8490;SDS011;4282;49.986;7.938;2023-05-07T06:04:49;1.95;;;1.75;;
8490;SDS011;4282;49.986;7.938;2023-05-07T06:07:17;2.22;;;1.83;;
8490;SDS011;4282;49.986;7.938;2023-05-07T06:09:46;3.75;;;2.10;;
8490;SDS011;4282;49.986;7.938;2023-05-07T06:12:14;2.45;;;1.90;;
8490;SDS011;4282;49.986;7.938;2023-05-07T06:14:42;2.05;;;1.75;;
8490;SDS011;4282;49.986;7.938;2023-05-07T06:17:13;2.42;;;1.88;;
8490;SDS011;4282;49.986;7.938;2023-05-07T06:19:41;2.13;;;1.90;;
8490;SDS011;4282;49.986;7.938;2023-05-07T06:22:09;2.60;;;2.20;;
8490;SDS011;4282;49.986;7.938;2023-05-07T06:24:38;2.55;;;1.67;;
8490;SDS011;4282;49.986;7.938;2023-05-07T06:27:06;2.17;;;1.90;;
8490;SDS011;4282;49.986;7.938;2023-05-07T06:29:34;1.77;;;1.67;;
8490;SDS011;4282;49.986;7.938;2023-05-07T06:32:06;2.45;;;1.88;;
8490;SDS011;4282;49.986;7.938;2023-05-07T06:34:37;2.95;;;1.80;;
8490;SDS011;4282;49.986;7.938;2023-05-07T06:37:06;1.75;;;1.60;;
8490;SDS011;4282;49.986;7.938;2023-05-07T06:39:35;3.03;;;1.80;;
8490;SDS011;4282;49.986;7.938;2023-05-07T06:42:03;3.08;;;1.73;;
8490;SDS011;4282;49.986;7.938;2023-05-07T06:44:32;1.83;;;1.67;;
8490;SDS011;4282;49.986;7.938;2023-05-07T06:47:00;2.53;;;1.88;;
8490;SDS011;4282;49.986;7.938;2023-05-07T06:49:28;1.98;;;1.65;;
8490;SDS011;4282;49.986;7.938;2023-05-07T06:51:59;3.15;;;2.03;;
8490;SDS011;4282;49.986;7.938;2023-05-07T06:54:28;1.83;;;1.60;;
8490;SDS011;4282;49.986;7.938;2023-05-07T06:56:56;3.38;;;1.95;;
8490;SDS011;4282;49.986;7.938;2023-05-07T06:59:24;4.70;;;1.75;;
8490;SDS011;4282;49.986;7.938;2023-05-07T07:01:53;3.78;;;1.95;;
8490;SDS011;4282;49.986;7.938;2023-05-07T07:04:21;3.30;;;1.73;;
8490;SDS011;4282;49.986;7.938;2023-05-07T07:06:51;1.65;;;1.55;;
8490;SDS011;4282;49.986;7.938;2023-05-07T07:09:22;2.60;;;2.00;;
8490;SDS011;4282;49.986;7.938;2023-05-07T07:11:50;4.32;;;1.70;;
8490;SDS011;4282;49.986;7.938;2023-05-07T07:14:18;2.63;;;1.60;;
8490;SDS011;4282;49.986;7.938;2023-05-07T07:16:47;2.58;;;1.88;;
8490;SDS011;4282;49.986;7.938;2023-05-07T07:19:15;2.72;;;1.88;;
8490;SDS011;4282;49.986;7.938;2023-05-07T07:21:45;2.67;;;1.92;;
8490;SDS011;4282;49.986;7.938;2023-05-07T07:24:13;2.35;;;1.75;;
8490;SDS011;4282;49.986;7.938;2023-05-07T07:26:48;2.38;;;1.90;;
8490;SDS011;4282;49.986;7.938;2023-05-07T07:29:17;2.35;;;1.98;;
8490;SDS011;4282;49.986;7.938;2023-05-07T07:31:45;3.33;;;2.05;;
8490;SDS011;4282;49.986;7.938;2023-05-07T07:34:13;2.78;;;1.70;;
8490;SDS011;4282;49.986;7.938;2023-05-07T07:36:41;3.15;;;2.10;;
8490;SDS011;4282;49.986;7.938;2023-05-07T07:39:10;2.15;;;1.95;;
8490;SDS011;4282;49.986;7.938;2023-05-07T07:41:38;5.28;;;2.47;;
8490;SDS011;4282;49.986;7.938;2023-05-07T07:44:09;2.42;;;2.22;;
8490;SDS011;4282;49.986;7.938;2023-05-07T07:46:38;2.40;;;2.15;;
8490;SDS011;4282;49.986;7.938;2023-05-07T07:49:06;1.95;;;1.75;;
8490;SDS011;4282;49.986;7.938;2023-05-07T07:51:34;2.10;;;1.98;;
8490;SDS011;4282;49.986;7.938;2023-05-07T07:54:03;2.65;;;1.85;;
8490;SDS011;4282;49.986;7.938;2023-05-07T07:56:31;3.47;;;2.03;;
8490;SDS011;4282;49.986;7.938;2023-05-07T07:59:00;2.30;;;2.10;;
8490;SDS011;4282;49.986;7.938;2023-05-07T08:01:31;3.65;;;2.08;;
8490;SDS011;4282;49.986;7.938;2023-05-07T08:04:00;4.18;;;2.10;;
8490;SDS011;4282;49.986;7.938;2023-05-07T08:06:28;2.42;;;2.22;;
8490;SDS011;4282;49.986;7.938;2023-05-07T08:08:56;3.58;;;2.90;;
8490;SDS011;4282;49.986;7.938;2023-05-07T08:11:25;3.42;;;2.30;;
8490;SDS011;4282;49.986;7.938;2023-05-07T08:13:53;2.40;;;2.20;;
8490;SDS011;4282;49.986;7.938;2023-05-07T08:16:21;4.20;;;2.53;;
8490;SDS011;4282;49.986;7.938;2023-05-07T08:18:52;6.68;;;2.47;;
8490;SDS011;4282;49.986;7.938;2023-05-07T08:21:21;3.10;;;2.33;;
8490;SDS011;4282;49.986;7.938;2023-05-07T08:23:50;2.60;;;2.30;;
8490;SDS011;4282;49.986;7.938;2023-05-07T08:26:18;2.55;;;2.08;;
8490;SDS011;4282;49.986;7.938;2023-05-07T08:28:46;3.28;;;2.20;;
8490;SDS011;4282;49.986;7.938;2023-05-07T08:31:14;2.83;;;2.20;;
8490;SDS011;4282;49.986;7.938;2023-05-07T08:33:43;2.40;;;2.20;;
8490;SDS011;4282;49.986;7.938;2023-05-07T08:36:13;2.67;;;2.47;;
8490;SDS011;4282;49.986;7.938;2023-05-07T08:38:44;1.77;;;1.67;;
8490;SDS011;4282;49.986;7.938;2023-05-07T08:41:12;3.72;;;2.35;;
8490;SDS011;4282;49.986;7.938;2023-05-07T08:43:41;2.90;;;2.60;;
8490;SDS011;4282;49.986;7.938;2023-05-07T08:46:09;3.22;;;2.22;;
8490;SDS011;4282;49.986;7.938;2023-05-07T08:48:38;4.28;;;2.33;;
8490;SDS011;4282;49.986;7.938;2023-05-07T08:51:06;2.20;;;2.05;;
8490;SDS011;4282;49.986;7.938;2023-05-07T08:53:38;2.80;;;2.60;;
8490;SDS011;4282;49.986;7.938;2023-05-07T08:56:08;3.15;;;2.50;;
8490;SDS011;4282;49.986;7.938;2023-05-07T08:58:37;2.53;;;2.28;;
8490;SDS011;4282;49.986;7.938;2023-05-07T09:01:07;4.13;;;3.42;;
8490;SDS011;4282;49.986;7.938;2023-05-07T09:03:36;2.88;;;2.58;;
8490;SDS011;4282;49.986;7.938;2023-05-07T09:06:04;3.85;;;2.53;;
8490;SDS011;4282;49.986;7.938;2023-05-07T09:08:33;4.15;;;2.80;;
8490;SDS011;4282;49.986;7.938;2023-05-07T09:11:04;3.05;;;2.75;;
8490;SDS011;4282;49.986;7.938;2023-05-07T09:13:33;3.13;;;2.53;;
8490;SDS011;4282;49.986;7.938;2023-05-07T09:16:09;2.78;;;2.30;;
8490;SDS011;4282;49.986;7.938;2023-05-07T09:18:42;2.60;;;2.40;;
8490;SDS011;4282;49.986;7.938;2023-05-07T09:21:11;4.13;;;2.45;;
8490;SDS011;4282;49.986;7.938;2023-05-07T09:23:42;2.63;;;2.42;;
8490;SDS011;4282;49.986;7.938;2023-05-07T09:26:13;2.60;;;2.40;;
8490;SDS011;4282;49.986;7.938;2023-05-07T09:28:42;2.92;;;2.63;;
8490;SDS011;4282;49.986;7.938;2023-05-07T09:31:11;3.45;;;2.65;;
8490;SDS011;4282;49.986;7.938;2023-05-07T09:33:40;3.10;;;2.55;;
8490;SDS011;4282;49.986;7.938;2023-05-07T09:36:08;3.15;;;2.85;;
8490;SDS011;4282;49.986;7.938;2023-05-07T09:38:37;3.33;;;2.90;;
8490;SDS011;4282;49.986;7.938;2023-05-07T09:41:07;2.65;;;2.45;;
8490;SDS011;4282;49.986;7.938;2023-05-07T09:43:39;2.90;;;2.30;;
8490;SDS011;4282;49.986;7.938;2023-05-07T09:46:09;2.60;;;2.40;;
8490;SDS011;4282;49.986;7.938;2023-05-07T09:48:40;2.42;;;2.22;;
8490;SDS011;4282;49.986;7.938;2023-05-07T09:51:14;4.60;;;2.33;;
8490;SDS011;4282;49.986;7.938;2023-05-07T09:53:45;2.80;;;2.50;;
8490;SDS011;4282;49.986;7.938;2023-05-07T09:56:15;2.70;;;2.50;;
8490;SDS011;4282;49.986;7.938;2023-05-07T09:58:46;2.97;;;2.75;;
8490;SDS011;4282;49.986;7.938;2023-05-07T10:01:15;3.30;;;2.90;;
8490;SDS011;4282;49.986;7.938;2023-05-07T10:03:47;3.60;;;3.30;;
8490;SDS011;4282;49.986;7.938;2023-05-07T10:06:17;2.80;;;2.45;;
8490;SDS011;4282;49.986;7.938;2023-05-07T10:08:45;4.75;;;3.55;;
8490;SDS011;4282;49.986;7.938;2023-05-07T10:11:14;5.57;;;3.67;;
8490;SDS011;4282;49.986;7.938;2023-05-07T10:13:43;6.45;;;5.53;;
8490;SDS011;4282;49.986;7.938;2023-05-07T10:16:14;3.33;;;2.95;;
8490;SDS011;4282;49.986;7.938;2023-05-07T10:18:43;3.25;;;2.92;;
8490;SDS011;4282;49.986;7.938;2023-05-07T10:21:13;3.15;;;2.65;;
8490;SDS011;4282;49.986;7.938;2023-05-07T10:23:45;3.08;;;2.78;;
8490;SDS011;4282;49.986;7.938;2023-05-07T10:26:20;4.13;;;2.80;;
8490;SDS011;4282;49.986;7.938;2023-05-07T10:28:51;2.80;;;2.45;;
8490;SDS011;4282;49.986;7.938;2023-05-07T10:34:21;2.80;;;2.60;;
8490;SDS011;4282;49.986;7.938;2023-05-07T10:36:51;3.55;;;2.80;;
8490;SDS011;4282;49.986;7.938;2023-05-07T10:39:20;3.25;;;2.95;;
8490;SDS011;4282;49.986;7.938;2023-05-07T10:41:48;3.35;;;2.83;;
8490;SDS011;4282;49.986;7.938;2023-05-07T10:44:26;3.35;;;2.65;;
8490;SDS011;4282;49.986;7.938;2023-05-07T10:47:08;4.30;;;3.13;;
8490;SDS011;4282;49.986;7.938;2023-05-07T10:49:46;4.15;;;3.20;;
8490;SDS011;4282;49.986;7.938;2023-05-07T10:59:04;3.40;;;2.90;;
8490;SDS011;4282;49.986;7.938;2023-05-07T11:01:59;4.35;;;3.08;;
8490;SDS011;4282;49.986;7.938;2023-05-07T11:04:31;3.40;;;3.10;;
8490;SDS011;4282;49.986;7.938;2023-05-07T11:10:00;3.40;;;3.10;;
8490;SDS011;4282;49.986;7.938;2023-05-07T11:18:10;6.38;;;4.90;;
8490;SDS011;4282;49.986;7.938;2023-05-07T11:20:47;3.33;;;3.03;;
8490;SDS011;4282;49.986;7.938;2023-05-07T11:26:27;6.47;;;4.32;;
8490;SDS011;4282;49.986;7.938;2023-05-07T11:28:56;3.50;;;3.20;;
8490;SDS011;4282;49.986;7.938;2023-05-07T11:31:26;5.90;;;3.80;;
8490;SDS011;4282;49.986;7.938;2023-05-07T11:33:55;3.78;;;3.47;;
8490;SDS011;4282;49.986;7.938;2023-05-07T11:36:30;4.63;;;3.10;;
8490;SDS011;4282;49.986;7.938;2023-05-07T11:38:59;4.50;;;3.75;;
8490;SDS011;4282;49.986;7.938;2023-05-07T11:41:36;3.60;;;3.30;;
8490;SDS011;4282;49.986;7.938;2023-05-07T11:44:07;3.30;;;3.00;;
8490;SDS011;4282;49.986;7.938;2023-05-07T11:46:36;3.40;;;2.75;;
8490;SDS011;4282;49.986;7.938;2023-05-07T11:49:04;2.80;;;2.45;;
8490;SDS011;4282;49.986;7.938;2023-05-07T11:51:36;3.72;;;3.08;;
8490;SDS011;4282;49.986;7.938;2023-05-07T11:54:04;3.28;;;2.97;;
8490;SDS011;4282;49.986;7.938;2023-05-07T11:56:34;4.90;;;3.22;;
8490;SDS011;4282;49.986;7.938;2023-05-07T11:59:02;6.93;;;3.38;;
8490;SDS011;4282;49.986;7.938;2023-05-07T12:01:31;3.83;;;3.08;;
8490;SDS011;4282;49.986;7.938;2023-05-07T12:03:59;3.67;;;3.28;;
8490;SDS011;4282;49.986;7.938;2023-05-07T12:06:30;3.60;;;3.30;;
8490;SDS011;4282;49.986;7.938;2023-05-07T12:09:01;3.95;;;2.97;;
8490;SDS011;4282;49.986;7.938;2023-05-07T12:11:30;3.13;;;2.50;;
8490;SDS011;4282;49.986;7.938;2023-05-07T12:13:58;3.80;;;3.10;;
8490;SDS011;4282;49.986;7.938;2023-05-07T12:16:27;3.33;;;3.13;;
8490;SDS011;4282;49.986;7.938;2023-05-07T12:18:55;4.07;;;3.40;;
8490;SDS011;4282;49.986;7.938;2023-05-07T12:21:24;4.65;;;2.90;;
8490;SDS011;4282;49.986;7.938;2023-05-07T12:23:52;3.70;;;3.40;;
8490;SDS011;4282;49.986;7.938;2023-05-07T12:26:23;3.78;;;3.47;;
8490;SDS011;4282;49.986;7.938;2023-05-07T12:28:51;3.85;;;3.22;;
8490;SDS011;4282;49.986;7.938;2023-05-07T12:31:20;4.35;;;3.03;;
8490;SDS011;4282;49.986;7.938;2023-05-07T12:33:48;4.63;;;3.35;;
8490;SDS011;4282;49.986;7.938;2023-05-07T12:36:17;5.43;;;3.97;;
8490;SDS011;4282;49.986;7.938;2023-05-07T12:38:46;3.85;;;3.55;;
8490;SDS011;4282;49.986;7.938;2023-05-07T12:41:17;4.88;;;3.13;;
8490;SDS011;4282;49.986;7.938;2023-05-07T12:43:53;4.40;;;3.15;;
8490;SDS011;4282;49.986;7.938;2023-05-07T12:46:24;4.07;;;3.28;;
8490;SDS011;4282;49.986;7.938;2023-05-07T12:48:52;4.00;;;2.92;;
8490;SDS011;4282;49.986;7.938;2023-05-07T12:51:20;4.60;;;3.25;;
8490;SDS011;4282;49.986;7.938;2023-05-07T12:53:49;3.95;;;2.83;;
8490;SDS011;4282;49.986;7.938;2023-05-07T12:56:17;3.35;;;3.05;;
8490;SDS011;4282;49.986;7.938;2023-05-07T12:58:45;3.28;;;2.97;;
8490;SDS011;4282;49.986;7.938;2023-05-07T13:01:19;4.32;;;2.90;;
8490;SDS011;4282;49.986;7.938;2023-05-07T13:03:48;3.17;;;2.58;;
8490;SDS011;4282;49.986;7.938;2023-05-07T13:06:17;3.08;;;2.55;;
8490;SDS011;4282;49.986;7.938;2023-05-07T13:08:46;3.10;;;2.70;;
8490;SDS011;4282;49.986;7.938;2023-05-07T13:11:14;3.38;;;2.90;;
8490;SDS011;4282;49.986;7.938;2023-05-07T13:13:42;3.28;;;2.97;;
8490;SDS011;4282;49.986;7.938;2023-05-07T13:16:11;3.15;;;2.85;;
8490;SDS011;4282;49.986;7.938;2023-05-07T13:18:41;3.97;;;3.17;;
8490;SDS011;4282;49.986;7.938;2023-05-07T13:21:10;2.95;;;2.70;;
8490;SDS011;4282;49.986;7.938;2023-05-07T13:23:40;3.40;;;3.20;;
8490;SDS011;4282;49.986;7.938;2023-05-07T13:26:08;3.88;;;3.00;;
8490;SDS011;4282;49.986;7.938;2023-05-07T13:28:36;3.28;;;2.97;;
8490;SDS011;4282;49.986;7.938;2023-05-07T13:31:05;4.28;;;2.85;;
8490;SDS011;4282;49.986;7.938;2023-05-07T13:33:33;3.45;;;3.10;;
8490;SDS011;4282;49.986;7.938;2023-05-07T13:36:04;4.05;;;2.92;;
8490;SDS011;4282;49.986;7.938;2023-05-07T13:38:33;3.15;;;2.60;;
8490;SDS011;4282;49.986;7.938;2023-05-07T13:41:01;3.22;;;2.80;;
8490;SDS011;4282;49.986;7.938;2023-05-07T13:43:29;3.38;;;3.05;;
8490;SDS011;4282;49.986;7.938;2023-05-07T13:45:58;2.80;;;2.60;;
8490;SDS011;4282;49.986;7.938;2023-05-07T13:48:27;2.83;;;2.63;;
8490;SDS011;4282;49.986;7.938;2023-05-07T13:50:55;2.38;;;2.28;;
8490;SDS011;4282;49.986;7.938;2023-05-07T13:53:26;3.35;;;2.58;;
8490;SDS011;4282;49.986;7.938;2023-05-07T13:55:54;3.47;;;2.50;;
8490;SDS011;4282;49.986;7.938;2023-05-07T13:58:22;3.47;;;2.83;;
8490;SDS011;4282;49.986;7.938;2023-05-07T14:00:51;4.45;;;2.83;;
8490;SDS011;4282;49.986;7.938;2023-05-07T14:03:19;2.83;;;2.55;;
8490;SDS011;4282;49.986;7.938;2023-05-07T14:05:47;3.47;;;2.47;;
8490;SDS011;4282;49.986;7.938;2023-05-07T14:08:15;3.55;;;2.67;;
8490;SDS011;4282;49.986;7.938;2023-05-07T14:10:47;5.28;;;2.40;;
8490;SDS011;4282;49.986;7.938;2023-05-07T14:13:15;2.92;;;2.22;;
8490;SDS011;4282;49.986;7.938;2023-05-07T14:15:44;3.22;;;2.50;;
8490;SDS011;4282;49.986;7.938;2023-05-07T14:18:14;3.88;;;2.50;;
8490;SDS011;4282;49.986;7.938;2023-05-07T14:20:42;2.20;;;1.92;;
8490;SDS011;4282;49.986;7.938;2023-05-07T14:23:12;2.30;;;2.10;;
8490;SDS011;4282;49.986;7.938;2023-05-07T14:25:42;2.30;;;2.10;;
8490;SDS011;4282;49.986;7.938;2023-05-07T14:28:15;3.22;;;2.17;;
8490;SDS011;4282;49.986;7.938;2023-05-07T14:30:43;2.30;;;1.70;;
8490;SDS011;4282;49.986;7.938;2023-05-07T14:33:11;2.40;;;2.13;;
8490;SDS011;4282;49.986;7.938;2023-05-07T14:35:39;2.50;;;1.90;;
8490;SDS011;4282;49.986;7.938;2023-05-07T14:38:12;2.40;;;2.20;;
8490;SDS011;4282;49.986;7.938;2023-05-07T14:40:40;2.65;;;1.92;;
8490;SDS011;4282;49.986;7.938;2023-05-07T14:43:08;1.50;;;1.40;;
8490;SDS011;4282;49.986;7.938;2023-05-07T14:45:39;3.80;;;1.98;;
8490;SDS011;4282;49.986;7.938;2023-05-07T14:48:07;1.75;;;1.65;;
8490;SDS011;4282;49.986;7.938;2023-05-07T14:50:40;2.05;;;1.95;;
8490;SDS011;4282;49.986;7.938;2023-05-07T14:53:08;1.80;;;1.70;;
8490;SDS011;4282;49.986;7.938;2023-05-07T14:55:36;1.65;;;1.50;;
8490;SDS011;4282;49.986;7.938;2023-05-07T14:58:04;2.40;;;1.75;;
8490;SDS011;4282;49.986;7.938;2023-05-07T15:00:33;3.47;;;2.03;;
8490;SDS011;4282;49.986;7.938;2023-05-07T15:03:07;1.73;;;1.60;;
8490;SDS011;4282;49.986;7.938;2023-05-07T15:05:37;1.77;;;1.52;;
8490;SDS011;4282;49.986;7.938;2023-05-07T15:08:06;2.10;;;1.90;;
8490;SDS011;4282;49.986;7.938;2023-05-07T15:10:35;1.77;;;1.65;;
8490;SDS011;4282;49.986;7.938;2023-05-07T15:13:06;1.70;;;1.60;;
8490;SDS011;4282;49.986;7.938;2023-05-07T15:15:35;1.52;;;1.42;;
8490;SDS011;4282;49.986;7.938;2023-05-07T15:18:05;1.77;;;1.67;;
8490;SDS011;4282;49.986;7.938;2023-05-07T15:20:35;2.88;;;1.35;;
8490;SDS011;4282;49.986;7.938;2023-05-07T15:23:04;1.80;;;1.60;;
8490;SDS011;4282;49.986;7.938;2023-05-07T15:25:34;1.92;;;1.40;;
8490;SDS011;4282;49.986;7.938;2023-05-07T15:28:03;2.92;;;1.65;;
8490;SDS011;4282;49.986;7.938;2023-05-07T15:30:31;2.15;;;1.20;;
8490;SDS011;4282;49.986;7.938;2023-05-07T15:33:00;2.08;;;1.45;;
8490;SDS011;4282;49.986;7.938;2023-05-07T15:35:31;1.40;;;1.30;;
8490;SDS011;4282;49.986;7.938;2023-05-07T15:37:59;2.70;;;1.60;;
8490;SDS011;4282;49.986;7.938;2023-05-07T15:40:28;3.92;;;1.40;;
8490;SDS011;4282;49.986;7.938;2023-05-07T15:42:57;2.05;;;1.85;;
8490;SDS011;4282;49.986;7.938;2023-05-07T15:45:25;2.38;;;1.30;;
8490;SDS011;4282;49.986;7.938;2023-05-07T15:47:54;2.13;;;1.30;;
8490;SDS011;4282;49.986;7.938;2023-05-07T15:50:22;2.78;;;1.50;;
8490;SDS011;4282;49.986;7.938;2023-05-07T15:52:54;1.90;;;1.35;;